sensor_id;sensor_type;location;lat;lon;timestamp;temperature;humidity
9448;DHT22;4762;48.128;11.376;2022-12-18T00:00:23;-3271.90;95.40
9448;DHT22;4762;48.128;11.376;2022-12-18T00:02:25;-3271.80;95.40
9448;DHT22;4762;48.128;11.376;2022-12-18T00:04:27;-3271.80;95.80
9448;DHT22;4762;48.128;11.376;2022-12-18T00:06:30;-3271.80;95.70
9448;DHT22;4762;48.128;11.376;2022-12-18T00:08:32;-3271.80;95.60
9448;DHT22;4762;48.128;11.376;2022-12-18T00:10:34;-3271.80;95.60
9448;DHT22;4762;48.128;11.376;2022-12-18T00:12:36;-3271.80;96.00
9448;DHT22;4762;48.128;11.376;2022-12-18T00:14:44;-3271.70;95.60
9448;DHT22;4762;48.128;11.376;2022-12-18T00:16:46;-3271.60;95.80
9448;DHT22;4762;48.128;11.376;2022-12-18T00:18:49;-3271.70;96.00
9448;DHT22;4762;48.128;11.376;2022-12-18T00:20:50;-3271.70;96.30
9448;DHT22;4762;48.128;11.376;2022-12-18T00:22:53;-3271.80;96.10
9448;DHT22;4762;48.128;11.376;2022-12-18T00:24:55;-3271.80;96.10
9448;DHT22;4762;48.128;11.376;2022-12-18T00:26:57;-3271.80;95.70
9448;DHT22;4762;48.128;11.376;2022-12-18T00:29:00;-3271.80;95.70
9448;DHT22;4762;48.128;11.376;2022-12-18T00:31:05;-3271.90;96.10
9448;DHT22;4762;48.128;11.376;2022-12-18T00:33:06;-3271.90;95.90
9448;DHT22;4762;48.128;11.376;2022-12-18T00:35:09;-3272.00;95.90
9448;DHT22;4762;48.128;11.376;2022-12-18T00:37:12;-3272.10;95.60
9448;DHT22;4762;48.128;11.376;2022-12-18T00:39:14;-3272.00;95.80
9448;DHT22;4762;48.128;11.376;2022-12-18T00:41:17;-3271.90;95.50
9448;DHT22;4762;48.128;11.376;2022-12-18T00:43:19;-3272.10;95.50
9448;DHT22;4762;48.128;11.376;2022-12-18T00:45:23;-3272.00;95.70
9448;DHT22;4762;48.128;11.376;2022-12-18T00:47:24;-3272.00;95.80
9448;DHT22;4762;48.128;11.376;2022-12-18T00:49:26;-3272.10;96.00
9448;DHT22;4762;48.128;11.376;2022-12-18T00:51:29;-3272.20;95.60
9448;DHT22;4762;48.128;11.376;2022-12-18T00:53:31;-3272.10;95.60
9448;DHT22;4762;48.128;11.376;2022-12-18T00:55:34;-3272.20;95.60
9448;DHT22;4762;48.128;11.376;2022-12-18T00:57:36;-3272.20;95.50
9448;DHT22;4762;48.128;11.376;2022-12-18T00:59:39;-3272.10;95.70
9448;DHT22;4762;48.128;11.376;2022-12-18T01:01:41;-3272.30;95.50
9448;DHT22;4762;48.128;11.376;2022-12-18T01:03:43;-3272.30;95.70
9448;DHT22;4762;48.128;11.376;2022-12-18T01:05:46;-3272.20;95.20
9448;DHT22;4762;48.128;11.376;2022-12-18T01:07:48;-3272.30;95.50
9448;DHT22;4762;48.128;11.376;2022-12-18T01:09:50;-3272.30;95.30
9448;DHT22;4762;48.128;11.376;2022-12-18T01:11:53;-3272.20;95.40
9448;DHT22;4762;48.128;11.376;2022-12-18T01:13:55;-3272.10;95.20
9448;DHT22;4762;48.128;11.376;2022-12-18T01:16:00;-3272.00;95.20
9448;DHT22;4762;48.128;11.376;2022-12-18T01:18:02;-3271.90;95.50
9448;DHT22;4762;48.128;11.376;2022-12-18T01:20:05;-3272.10;95.80
9448;DHT22;4762;48.128;11.376;2022-12-18T01:22:07;-3272.10;95.60
9448;DHT22;4762;48.128;11.376;2022-12-18T01:24:10;-3272.10;95.60
9448;DHT22;4762;48.128;11.376;2022-12-18T01:26:14;-3272.00;95.40
9448;DHT22;4762;48.128;11.376;2022-12-18T01:28:15;-3271.90;95.50
9448;DHT22;4762;48.128;11.376;2022-12-18T01:30:17;-3272.00;95.50
9448;DHT22;4762;48.128;11.376;2022-12-18T01:32:20;-3272.00;95.30
9448;DHT22;4762;48.128;11.376;2022-12-18T01:34:23;-3272.00;95.60
9448;DHT22;4762;48.128;11.376;2022-12-18T01:36:27;-3272.00;95.30
9448;DHT22;4762;48.128;11.376;2022-12-18T01:38:28;-3272.00;95.60
9448;DHT22;4762;48.128;11.376;2022-12-18T01:40:30;-3272.20;95.90
9448;DHT22;4762;48.128;11.376;2022-12-18T01:42:33;-3272.30;95.70
9448;DHT22;4762;48.128;11.376;2022-12-18T01:45:00;-3272.30;95.50
9448;DHT22;4762;48.128;11.376;2022-12-18T01:47:01;-3272.20;95.20
9448;DHT22;4762;48.128;11.376;2022-12-18T01:49:03;-3272.00;95.20
9448;DHT22;4762;48.128;11.376;2022-12-18T01:51:06;-3272.00;95.30
9448;DHT22;4762;48.128;11.376;2022-12-18T01:53:14;-3272.00;95.30
9448;DHT22;4762;48.128;11.376;2022-12-18T01:55:16;-3272.00;95.40
9448;DHT22;4762;48.128;11.376;2022-12-18T01:57:17;-3272.00;95.70
9448;DHT22;4762;48.128;11.376;2022-12-18T01:59:20;-3272.00;95.50
9448;DHT22;4762;48.128;11.376;2022-12-18T02:01:22;-3271.90;95.40
9448;DHT22;4762;48.128;11.376;2022-12-18T02:03:25;-3271.90;95.30
9448;DHT22;4762;48.128;11.376;2022-12-18T02:05:32;-3272.00;95.60
9448;DHT22;4762;48.128;11.376;2022-12-18T02:08:16;-3272.00;95.30
9448;DHT22;4762;48.128;11.376;2022-12-18T02:10:00;-3272.00;95.50
9448;DHT22;4762;48.128;11.376;2022-12-18T02:12:05;-3272.10;95.60
9448;DHT22;4762;48.128;11.376;2022-12-18T02:14:28;-3272.10;95.50
9448;DHT22;4762;48.128;11.376;2022-12-18T02:16:34;-3272.00;95.30
9448;DHT22;4762;48.128;11.376;2022-12-18T02:18:35;-3272.00;95.20
9448;DHT22;4762;48.128;11.376;2022-12-18T02:20:39;-3271.90;95.30
9448;DHT22;4762;48.128;11.376;2022-12-18T02:22:58;-3271.80;95.00
9448;DHT22;4762;48.128;11.376;2022-12-18T02:27:33;-3271.90;95.60
9448;DHT22;4762;48.128;11.376;2022-12-18T02:29:38;-3271.80;95.40
9448;DHT22;4762;48.128;11.376;2022-12-18T02:31:51;-3271.90;95.50
9448;DHT22;4762;48.128;11.376;2022-12-18T02:33:53;-3271.80;95.80
9448;DHT22;4762;48.128;11.376;2022-12-18T02:35:54;-3271.90;95.70
9448;DHT22;4762;48.128;11.376;2022-12-18T02:37:56;-3272.00;95.60
9448;DHT22;4762;48.128;11.376;2022-12-18T02:39:59;-3271.90;95.50
9448;DHT22;4762;48.128;11.376;2022-12-18T02:42:01;-3271.80;95.40
9448;DHT22;4762;48.128;11.376;2022-12-18T02:44:07;-3271.70;95.40
9448;DHT22;4762;48.128;11.376;2022-12-18T02:46:36;-3271.70;95.60
9448;DHT22;4762;48.128;11.376;2022-12-18T02:48:38;-3271.70;95.60
9448;DHT22;4762;48.128;11.376;2022-12-18T02:50:59;-3271.70;95.60
9448;DHT22;4762;48.128;11.376;2022-12-18T02:53:16;-3271.70;95.30
9448;DHT22;4762;48.128;11.376;2022-12-18T02:57:56;-3271.60;95.70
9448;DHT22;4762;48.128;11.376;2022-12-18T03:00:31;-3271.70;95.70
9448;DHT22;4762;48.128;11.376;2022-12-18T03:02:25;-3271.70;95.40
9448;DHT22;4762;48.128;11.376;2022-12-18T03:04:30;-3271.60;95.30
9448;DHT22;4762;48.128;11.376;2022-12-18T03:06:33;-3271.70;95.30
9448;DHT22;4762;48.128;11.376;2022-12-18T03:08:38;-3271.60;95.30
9448;DHT22;4762;48.128;11.376;2022-12-18T03:10:41;-3271.70;95.30
9448;DHT22;4762;48.128;11.376;2022-12-18T03:12:43;-3271.60;95.40
9448;DHT22;4762;48.128;11.376;2022-12-18T03:14:44;-3271.60;95.40
9448;DHT22;4762;48.128;11.376;2022-12-18T03:16:47;-3271.50;95.60
9448;DHT22;4762;48.128;11.376;2022-12-18T03:18:51;-3271.40;95.70
9448;DHT22;4762;48.128;11.376;2022-12-18T03:20:51;-3271.40;95.80
9448;DHT22;4762;48.128;11.376;2022-12-18T03:22:56;-3271.40;95.70
9448;DHT22;4762;48.128;11.376;2022-12-18T03:24:56;-3271.30;95.70
9448;DHT22;4762;48.128;11.376;2022-12-18T03:27:00;-3271.40;95.90
9448;DHT22;4762;48.128;11.376;2022-12-18T03:29:02;-3271.40;95.80
9448;DHT22;4762;48.128;11.376;2022-12-18T03:31:03;-3271.40;95.80
9448;DHT22;4762;48.128;11.376;2022-12-18T03:33:12;-3271.60;95.90
9448;DHT22;4762;48.128;11.376;2022-12-18T03:35:14;-3271.60;95.80
9448;DHT22;4762;48.128;11.376;2022-12-18T03:37:15;-3271.60;95.90
9448;DHT22;4762;48.128;11.376;2022-12-18T03:39:18;-3271.60;95.60
9448;DHT22;4762;48.128;11.376;2022-12-18T03:41:29;-3271.40;95.50
9448;DHT22;4762;48.128;11.376;2022-12-18T03:43:52;-3271.40;95.60
9448;DHT22;4762;48.128;11.376;2022-12-18T03:46:01;-3271.30;95.80
9448;DHT22;4762;48.128;11.376;2022-12-18T03:48:08;-3271.40;95.90
9448;DHT22;4762;48.128;11.376;2022-12-18T03:52:39;-3271.60;95.90
9448;DHT22;4762;48.128;11.376;2022-12-18T03:54:40;-3271.70;95.70
9448;DHT22;4762;48.128;11.376;2022-12-18T03:56:44;-3271.60;95.70
9448;DHT22;4762;48.128;11.376;2022-12-18T03:58:45;-3271.70;95.50
9448;DHT22;4762;48.128;11.376;2022-12-18T04:00:48;-3271.70;95.70
9448;DHT22;4762;48.128;11.376;2022-12-18T04:02:51;-3271.70;95.60
9448;DHT22;4762;48.128;11.376;2022-12-18T04:04:53;-3271.70;95.50
9448;DHT22;4762;48.128;11.376;2022-12-18T04:06:55;-3271.70;95.10
9448;DHT22;4762;48.128;11.376;2022-12-18T04:08:58;-3271.70;95.20
9448;DHT22;4762;48.128;11.376;2022-12-18T04:11:00;-3271.70;95.30
9448;DHT22;4762;48.128;11.376;2022-12-18T04:13:02;-3271.60;95.40
9448;DHT22;4762;48.128;11.376;2022-12-18T04:15:06;-3271.70;95.60
9448;DHT22;4762;48.128;11.376;2022-12-18T04:17:08;-3271.60;95.50
9448;DHT22;4762;48.128;11.376;2022-12-18T04:19:10;-3271.60;95.30
9448;DHT22;4762;48.128;11.376;2022-12-18T04:21:13;-3271.60;95.00
9448;DHT22;4762;48.128;11.376;2022-12-18T04:23:15;-3271.60;95.60
9448;DHT22;4762;48.128;11.376;2022-12-18T04:25:17;-3271.60;95.30
9448;DHT22;4762;48.128;11.376;2022-12-18T04:27:20;-3271.60;95.30
9448;DHT22;4762;48.128;11.376;2022-12-18T04:29:22;-3271.60;95.40
9448;DHT22;4762;48.128;11.376;2022-12-18T04:31:24;-3271.60;95.50
9448;DHT22;4762;48.128;11.376;2022-12-18T04:33:26;-3271.60;95.50
9448;DHT22;4762;48.128;11.376;2022-12-18T04:35:29;-3271.70;95.50
9448;DHT22;4762;48.128;11.376;2022-12-18T04:37:31;-3271.70;95.10
9448;DHT22;4762;48.128;11.376;2022-12-18T04:39:33;-3271.70;95.20
9448;DHT22;4762;48.128;11.376;2022-12-18T04:41:36;-3271.70;95.60
9448;DHT22;4762;48.128;11.376;2022-12-18T04:43:38;-3271.80;95.30
9448;DHT22;4762;48.128;11.376;2022-12-18T04:45:40;-3271.80;95.40
9448;DHT22;4762;48.128;11.376;2022-12-18T04:47:42;-3271.80;95.20
9448;DHT22;4762;48.128;11.376;2022-12-18T04:49:45;-3271.80;94.70
9448;DHT22;4762;48.128;11.376;2022-12-18T04:51:47;-3271.80;95.00
9448;DHT22;4762;48.128;11.376;2022-12-18T04:53:49;-3271.80;95.20
9448;DHT22;4762;48.128;11.376;2022-12-18T04:56:01;-3271.90;95.20
9448;DHT22;4762;48.128;11.376;2022-12-18T04:57:54;-3271.80;95.10
9448;DHT22;4762;48.128;11.376;2022-12-18T04:59:57;-3271.90;95.30
9448;DHT22;4762;48.128;11.376;2022-12-18T05:01:59;-3271.90;95.30
9448;DHT22;4762;48.128;11.376;2022-12-18T05:04:02;-3271.90;95.10
9448;DHT22;4762;48.128;11.376;2022-12-18T05:06:04;-3271.80;94.80
9448;DHT22;4762;48.128;11.376;2022-12-18T05:08:06;-3271.90;95.20
9448;DHT22;4762;48.128;11.376;2022-12-18T05:10:08;-3271.80;95.10
9448;DHT22;4762;48.128;11.376;2022-12-18T05:12:11;-3271.80;95.30
9448;DHT22;4762;48.128;11.376;2022-12-18T05:14:13;-3271.90;95.20
9448;DHT22;4762;48.128;11.376;2022-12-18T05:16:15;-3271.70;95.20
9448;DHT22;4762;48.128;11.376;2022-12-18T05:18:18;-3271.80;95.20
9448;DHT22;4762;48.128;11.376;2022-12-18T05:20:20;-3271.80;95.40
9448;DHT22;4762;48.128;11.376;2022-12-18T05:22:22;-3271.70;95.50
9448;DHT22;4762;48.128;11.376;2022-12-18T05:24:25;-3271.90;95.60
9448;DHT22;4762;48.128;11.376;2022-12-18T05:26:27;-3271.80;95.50
9448;DHT22;4762;48.128;11.376;2022-12-18T05:28:29;-3271.90;95.40
9448;DHT22;4762;48.128;11.376;2022-12-18T05:30:31;-3271.80;95.10
9448;DHT22;4762;48.128;11.376;2022-12-18T05:32:34;-3271.80;95.20
9448;DHT22;4762;48.128;11.376;2022-12-18T05:34:36;-3271.60;94.80
9448;DHT22;4762;48.128;11.376;2022-12-18T05:36:38;-3271.50;94.90
9448;DHT22;4762;48.128;11.376;2022-12-18T05:38:41;-3271.60;95.20
9448;DHT22;4762;48.128;11.376;2022-12-18T05:40:43;-3271.50;95.40
9448;DHT22;4762;48.128;11.376;2022-12-18T05:42:45;-3271.60;95.60
9448;DHT22;4762;48.128;11.376;2022-12-18T05:44:47;-3271.70;95.30
9448;DHT22;4762;48.128;11.376;2022-12-18T05:46:50;-3271.70;95.50
9448;DHT22;4762;48.128;11.376;2022-12-18T05:48:52;-3271.70;95.30
9448;DHT22;4762;48.128;11.376;2022-12-18T05:50:54;-3271.80;95.30
9448;DHT22;4762;48.128;11.376;2022-12-18T05:52:56;-3271.70;95.20
9448;DHT22;4762;48.128;11.376;2022-12-18T05:54:59;-3271.80;95.20
9448;DHT22;4762;48.128;11.376;2022-12-18T05:57:01;-3271.70;95.20
9448;DHT22;4762;48.128;11.376;2022-12-18T05:59:03;-3271.80;95.10
9448;DHT22;4762;48.128;11.376;2022-12-18T06:01:15;-3271.90;95.10
9448;DHT22;4762;48.128;11.376;2022-12-18T06:03:18;-3271.70;95.10
9448;DHT22;4762;48.128;11.376;2022-12-18T06:05:20;-3271.60;94.60
9448;DHT22;4762;48.128;11.376;2022-12-18T06:07:22;-3271.50;94.80
9448;DHT22;4762;48.128;11.376;2022-12-18T06:09:24;-3271.40;95.10
9448;DHT22;4762;48.128;11.376;2022-12-18T06:11:28;-3271.40;95.20
9448;DHT22;4762;48.128;11.376;2022-12-18T06:13:30;-3271.50;95.30
9448;DHT22;4762;48.128;11.376;2022-12-18T06:15:35;-3271.50;95.50
9448;DHT22;4762;48.128;11.376;2022-12-18T06:17:35;-3271.50;95.00
9448;DHT22;4762;48.128;11.376;2022-12-18T06:19:37;-3271.60;95.30
9448;DHT22;4762;48.128;11.376;2022-12-18T06:21:40;-3271.60;95.40
9448;DHT22;4762;48.128;11.376;2022-12-18T06:23:42;-3271.60;95.30
9448;DHT22;4762;48.128;11.376;2022-12-18T06:25:45;-3271.50;94.50
9448;DHT22;4762;48.128;11.376;2022-12-18T06:27:47;-3271.40;95.00
9448;DHT22;4762;48.128;11.376;2022-12-18T06:29:50;-3271.20;95.30
9448;DHT22;4762;48.128;11.376;2022-12-18T06:31:52;-3271.20;95.30
9448;DHT22;4762;48.128;11.376;2022-12-18T06:33:54;-3271.20;95.60
9448;DHT22;4762;48.128;11.376;2022-12-18T06:36:00;-3271.20;95.50
9448;DHT22;4762;48.128;11.376;2022-12-18T06:38:02;-3271.20;95.40
9448;DHT22;4762;48.128;11.376;2022-12-18T06:40:05;-3271.30;95.60
9448;DHT22;4762;48.128;11.376;2022-12-18T06:42:07;-3271.30;95.50
9448;DHT22;4762;48.128;11.376;2022-12-18T06:44:10;-3271.30;95.50
9448;DHT22;4762;48.128;11.376;2022-12-18T06:46:12;-3271.40;95.60
9448;DHT22;4762;48.128;11.376;2022-12-18T06:48:14;-3271.50;95.50
9448;DHT22;4762;48.128;11.376;2022-12-18T06:50:17;-3271.50;95.40
9448;DHT22;4762;48.128;11.376;2022-12-18T06:52:19;-3271.50;95.30
9448;DHT22;4762;48.128;11.376;2022-12-18T06:54:21;-3271.40;95.60
9448;DHT22;4762;48.128;11.376;2022-12-18T06:56:24;-3271.60;95.50
9448;DHT22;4762;48.128;11.376;2022-12-18T06:58:26;-3271.50;94.80
9448;DHT22;4762;48.128;11.376;2022-12-18T07:00:29;-3271.50;95.20
9448;DHT22;4762;48.128;11.376;2022-12-18T07:02:31;-3271.40;94.70
9448;DHT22;4762;48.128;11.376;2022-12-18T07:04:33;-3271.50;95.00
9448;DHT22;4762;48.128;11.376;2022-12-18T07:06:36;-3271.50;95.10
9448;DHT22;4762;48.128;11.376;2022-12-18T07:08:39;-3271.60;95.10
9448;DHT22;4762;48.128;11.376;2022-12-18T07:10:42;-3271.60;94.90
9448;DHT22;4762;48.128;11.376;2022-12-18T07:12:44;-3271.60;95.20
9448;DHT22;4762;48.128;11.376;2022-12-18T07:14:46;-3271.50;94.80
9448;DHT22;4762;48.128;11.376;2022-12-18T07:16:48;-3271.50;94.60
9448;DHT22;4762;48.128;11.376;2022-12-18T07:18:51;-3271.40;94.80
9448;DHT22;4762;48.128;11.376;2022-12-18T07:20:53;-3271.40;94.70
9448;DHT22;4762;48.128;11.376;2022-12-18T07:22:55;-3271.30;94.70
9448;DHT22;4762;48.128;11.376;2022-12-18T07:24:57;-3271.30;94.90
9448;DHT22;4762;48.128;11.376;2022-12-18T07:27:00;-3271.30;95.30
9448;DHT22;4762;48.128;11.376;2022-12-18T07:29:02;-3271.40;95.40
9448;DHT22;4762;48.128;11.376;2022-12-18T07:31:07;-3271.40;95.20
9448;DHT22;4762;48.128;11.376;2022-12-18T07:33:09;-3271.40;94.60
9448;DHT22;4762;48.128;11.376;2022-12-18T07:35:12;-3271.30;94.60
9448;DHT22;4762;48.128;11.376;2022-12-18T07:37:14;-3271.20;94.90
9448;DHT22;4762;48.128;11.376;2022-12-18T07:39:16;-3271.40;95.00
9448;DHT22;4762;48.128;11.376;2022-12-18T07:41:18;-3271.40;95.00
9448;DHT22;4762;48.128;11.376;2022-12-18T07:43:21;-3271.50;94.90
9448;DHT22;4762;48.128;11.376;2022-12-18T07:45:23;-3271.60;94.90
9448;DHT22;4762;48.128;11.376;2022-12-18T07:47:25;-3271.70;95.10
9448;DHT22;4762;48.128;11.376;2022-12-18T07:49:28;-3271.70;95.00
9448;DHT22;4762;48.128;11.376;2022-12-18T07:51:30;-3271.80;95.10
9448;DHT22;4762;48.128;11.376;2022-12-18T07:53:32;-3271.90;94.90
9448;DHT22;4762;48.128;11.376;2022-12-18T07:55:35;-3271.90;94.80
9448;DHT22;4762;48.128;11.376;2022-12-18T07:57:38;-3271.90;94.30
9448;DHT22;4762;48.128;11.376;2022-12-18T07:59:40;-3271.90;94.30
9448;DHT22;4762;48.128;11.376;2022-12-18T08:01:42;-3271.90;94.80
9448;DHT22;4762;48.128;11.376;2022-12-18T08:03:44;-3271.80;94.50
9448;DHT22;4762;48.128;11.376;2022-12-18T08:05:49;-3272.00;94.50
9448;DHT22;4762;48.128;11.376;2022-12-18T08:07:51;-3271.90;94.30
9448;DHT22;4762;48.128;11.376;2022-12-18T08:09:53;-3271.90;94.20
9448;DHT22;4762;48.128;11.376;2022-12-18T08:11:55;-3271.90;94.10
9448;DHT22;4762;48.128;11.376;2022-12-18T08:13:59;-3272.00;94.40
9448;DHT22;4762;48.128;11.376;2022-12-18T08:16:02;-3271.90;94.20
9448;DHT22;4762;48.128;11.376;2022-12-18T08:18:03;-3271.60;93.40
9448;DHT22;4762;48.128;11.376;2022-12-18T08:20:06;-3271.60;94.30
9448;DHT22;4762;48.128;11.376;2022-12-18T08:22:09;-3271.60;94.70
9448;DHT22;4762;48.128;11.376;2022-12-18T08:24:11;-3271.80;94.60
9448;DHT22;4762;48.128;11.376;2022-12-18T08:26:13;-3271.90;94.90
9448;DHT22;4762;48.128;11.376;2022-12-18T08:28:16;-3272.00;94.60
9448;DHT22;4762;48.128;11.376;2022-12-18T08:30:18;-3272.00;93.80
9448;DHT22;4762;48.128;11.376;2022-12-18T08:32:20;-3271.90;93.50
9448;DHT22;4762;48.128;11.376;2022-12-18T08:34:23;-3271.90;93.70
9448;DHT22;4762;48.128;11.376;2022-12-18T08:36:25;-3271.80;93.20
9448;DHT22;4762;48.128;11.376;2022-12-18T08:38:27;-3271.80;93.50
9448;DHT22;4762;48.128;11.376;2022-12-18T08:40:30;-3271.90;94.10
9448;DHT22;4762;48.128;11.376;2022-12-18T08:42:34;-3272.00;93.60
9448;DHT22;4762;48.128;11.376;2022-12-18T08:44:43;-3272.10;93.90
9448;DHT22;4762;48.128;11.376;2022-12-18T08:46:45;-3272.00;93.80
9448;DHT22;4762;48.128;11.376;2022-12-18T08:48:47;-3272.00;93.80
9448;DHT22;4762;48.128;11.376;2022-12-18T08:50:55;-3272.10;93.70
9448;DHT22;4762;48.128;11.376;2022-12-18T08:52:57;-3272.20;93.90
9448;DHT22;4762;48.128;11.376;2022-12-18T08:55:00;-3272.20;93.50
9448;DHT22;4762;48.128;11.376;2022-12-18T08:57:02;-3272.10;93.50
9448;DHT22;4762;48.128;11.376;2022-12-18T08:59:04;-3272.20;93.60
9448;DHT22;4762;48.128;11.376;2022-12-18T09:01:07;-3272.20;93.40
9448;DHT22;4762;48.128;11.376;2022-12-18T09:03:13;-3272.10;93.40
9448;DHT22;4762;48.128;11.376;2022-12-18T09:05:15;-3272.20;93.20
9448;DHT22;4762;48.128;11.376;2022-12-18T09:07:17;-3272.00;93.10
9448;DHT22;4762;48.128;11.376;2022-12-18T09:09:19;-3272.10;93.40
9448;DHT22;4762;48.128;11.376;2022-12-18T09:11:23;-3272.20;93.40
9448;DHT22;4762;48.128;11.376;2022-12-18T09:13:25;-3272.20;93.30
9448;DHT22;4762;48.128;11.376;2022-12-18T09:15:27;-3272.10;93.20
9448;DHT22;4762;48.128;11.376;2022-12-18T09:17:30;-3272.10;93.40
9448;DHT22;4762;48.128;11.376;2022-12-18T09:19:32;-3272.10;93.10
9448;DHT22;4762;48.128;11.376;2022-12-18T09:21:34;-3272.20;93.40
9448;DHT22;4762;48.128;11.376;2022-12-18T09:23:38;-3272.40;93.50
9448;DHT22;4762;48.128;11.376;2022-12-18T09:25:41;-3272.30;93.00
9448;DHT22;4762;48.128;11.376;2022-12-18T09:27:43;-3272.20;92.60
9448;DHT22;4762;48.128;11.376;2022-12-18T09:29:45;-3272.30;92.70
9448;DHT22;4762;48.128;11.376;2022-12-18T09:31:47;-3272.40;93.00
9448;DHT22;4762;48.128;11.376;2022-12-18T09:33:50;-3272.50;93.30
9448;DHT22;4762;48.128;11.376;2022-12-18T09:35:52;-3272.10;92.10
9448;DHT22;4762;48.128;11.376;2022-12-18T09:37:54;-3271.90;92.40
9448;DHT22;4762;48.128;11.376;2022-12-18T09:39:57;-3271.90;93.10
9448;DHT22;4762;48.128;11.376;2022-12-18T09:41:59;-3272.00;93.20
9448;DHT22;4762;48.128;11.376;2022-12-18T09:44:30;-3272.20;93.20
9448;DHT22;4762;48.128;11.376;2022-12-18T09:46:35;-3272.20;92.80
9448;DHT22;4762;48.128;11.376;2022-12-18T09:48:37;-3272.30;93.30
9448;DHT22;4762;48.128;11.376;2022-12-18T09:50:38;-3272.40;93.50
9448;DHT22;4762;48.128;11.376;2022-12-18T09:52:41;-3272.50;93.30
9448;DHT22;4762;48.128;11.376;2022-12-18T09:54:44;-3272.50;92.60
9448;DHT22;4762;48.128;11.376;2022-12-18T09:56:45;-3272.50;92.60
9448;DHT22;4762;48.128;11.376;2022-12-18T09:58:53;-3272.70;92.80
9448;DHT22;4762;48.128;11.376;2022-12-18T10:00:52;-3272.60;92.50
9448;DHT22;4762;48.128;11.376;2022-12-18T10:02:59;-3272.70;92.70
9448;DHT22;4762;48.128;11.376;2022-12-18T10:05:07;-3272.60;92.50
9448;DHT22;4762;48.128;11.376;2022-12-18T10:07:16;-3272.60;92.20
9448;DHT22;4762;48.128;11.376;2022-12-18T10:09:27;-3272.60;92.70
9448;DHT22;4762;48.128;11.376;2022-12-18T10:11:38;-3272.60;92.30
9448;DHT22;4762;48.128;11.376;2022-12-18T10:13:43;-3272.50;92.20
9448;DHT22;4762;48.128;11.376;2022-12-18T10:15:50;-3272.40;92.10
9448;DHT22;4762;48.128;11.376;2022-12-18T10:17:54;-3272.60;92.80
9448;DHT22;4762;48.128;11.376;2022-12-18T10:20:02;-3272.60;92.30
9448;DHT22;4762;48.128;11.376;2022-12-18T10:22:11;-3272.70;92.40
9448;DHT22;4762;48.128;11.376;2022-12-18T10:24:37;-3272.70;92.30
9448;DHT22;4762;48.128;11.376;2022-12-18T10:26:36;-3272.70;91.90
9448;DHT22;4762;48.128;11.376;2022-12-18T10:28:39;-3272.80;92.30
9448;DHT22;4762;48.128;11.376;2022-12-18T10:30:42;-3272.60;91.80
9448;DHT22;4762;48.128;11.376;2022-12-18T10:32:44;-3272.30;91.40
9448;DHT22;4762;48.128;11.376;2022-12-18T10:34:48;-3272.40;92.10
9448;DHT22;4762;48.128;11.376;2022-12-18T10:36:49;-3272.50;92.30
9448;DHT22;4762;48.128;11.376;2022-12-18T10:38:52;-3272.60;92.50
9448;DHT22;4762;48.128;11.376;2022-12-18T10:40:56;-3272.40;91.60
9448;DHT22;4762;48.128;11.376;2022-12-18T10:43:12;-3272.50;91.60
9448;DHT22;4762;48.128;11.376;2022-12-18T10:45:16;-3272.40;91.60
9448;DHT22;4762;48.128;11.376;2022-12-18T10:47:20;-3272.40;92.40
9448;DHT22;4762;48.128;11.376;2022-12-18T10:49:27;-3272.40;92.10
9448;DHT22;4762;48.128;11.376;2022-12-18T10:51:30;-3272.50;92.40
9448;DHT22;4762;48.128;11.376;2022-12-18T10:53:32;-3272.70;92.80
9448;DHT22;4762;48.128;11.376;2022-12-18T10:55:35;-3272.90;92.60
9448;DHT22;4762;48.128;11.376;2022-12-18T10:57:37;-3272.90;91.60
9448;DHT22;4762;48.128;11.376;2022-12-18T10:59:49;-3272.90;91.80
9448;DHT22;4762;48.128;11.376;2022-12-18T11:01:52;-3273.00;91.40
9448;DHT22;4762;48.128;11.376;2022-12-18T11:04:08;-3273.00;91.80
9448;DHT22;4762;48.128;11.376;2022-12-18T11:06:08;-3273.20;91.50
9448;DHT22;4762;48.128;11.376;2022-12-18T11:08:18;-3273.00;90.50
9448;DHT22;4762;48.128;11.376;2022-12-18T11:10:15;-3272.90;91.00
9448;DHT22;4762;48.128;11.376;2022-12-18T11:12:18;-3273.00;91.80
9448;DHT22;4762;48.128;11.376;2022-12-18T11:14:32;-3273.40;92.20
9448;DHT22;4762;48.128;11.376;2022-12-18T11:16:37;-3273.10;90.70
9448;DHT22;4762;48.128;11.376;2022-12-18T11:18:39;-3272.90;91.20
9448;DHT22;4762;48.128;11.376;2022-12-18T11:20:41;-3273.10;92.00
9448;DHT22;4762;48.128;11.376;2022-12-18T11:22:43;-3273.50;92.70
9448;DHT22;4762;48.128;11.376;2022-12-18T11:25:02;-3273.40;91.50
9448;DHT22;4762;48.128;11.376;2022-12-18T11:27:04;-3273.50;91.70
9448;DHT22;4762;48.128;11.376;2022-12-18T11:29:09;-3273.40;91.60
9448;DHT22;4762;48.128;11.376;2022-12-18T11:31:28;-3273.30;90.60
9448;DHT22;4762;48.128;11.376;2022-12-18T11:33:29;-3273.10;90.40
9448;DHT22;4762;48.128;11.376;2022-12-18T11:35:47;-3273.10;91.30
9448;DHT22;4762;48.128;11.376;2022-12-18T11:37:54;-3273.10;90.50
9448;DHT22;4762;48.128;11.376;2022-12-18T11:39:54;-3272.70;90.00
9448;DHT22;4762;48.128;11.376;2022-12-18T11:41:57;-3272.50;90.60
9448;DHT22;4762;48.128;11.376;2022-12-18T11:44:04;-3272.30;90.80
9448;DHT22;4762;48.128;11.376;2022-12-18T11:46:10;-3272.50;91.80
9448;DHT22;4762;48.128;11.376;2022-12-18T11:48:25;-3272.50;91.50
9448;DHT22;4762;48.128;11.376;2022-12-18T11:50:43;-3272.30;91.40
9448;DHT22;4762;48.128;11.376;2022-12-18T11:52:41;-3272.50;92.10
9448;DHT22;4762;48.128;11.376;2022-12-18T11:54:47;-3272.60;91.90
9448;DHT22;4762;48.128;11.376;2022-12-18T12:03:52;-3272.90;91.70
9448;DHT22;4762;48.128;11.376;2022-12-18T12:06:04;-3272.90;91.70
9448;DHT22;4762;48.128;11.376;2022-12-18T12:10:47;-3272.80;91.70
9448;DHT22;4762;48.128;11.376;2022-12-18T12:13:00;-3272.80;91.70
9448;DHT22;4762;48.128;11.376;2022-12-18T12:15:04;-3272.90;91.80
9448;DHT22;4762;48.128;11.376;2022-12-18T12:17:38;-3272.90;91.80
9448;DHT22;4762;48.128;11.376;2022-12-18T12:19:31;-3272.80;91.70
9448;DHT22;4762;48.128;11.376;2022-12-18T12:22:04;-3272.60;91.10
9448;DHT22;4762;48.128;11.376;2022-12-18T12:24:15;-3271.90;91.30
9448;DHT22;4762;48.128;11.376;2022-12-18T12:26:22;-3272.10;91.90
9448;DHT22;4762;48.128;11.376;2022-12-18T12:28:31;-3272.20;92.30
9448;DHT22;4762;48.128;11.376;2022-12-18T12:30:35;-3272.30;92.40
9448;DHT22;4762;48.128;11.376;2022-12-18T12:32:44;-3272.50;92.10
9448;DHT22;4762;48.128;11.376;2022-12-18T12:37:02;-3272.60;92.00
9448;DHT22;4762;48.128;11.376;2022-12-18T12:39:03;-3272.80;92.60
9448;DHT22;4762;48.128;11.376;2022-12-18T12:41:05;-3273.00;92.60
9448;DHT22;4762;48.128;11.376;2022-12-18T12:43:16;-3273.10;91.90
9448;DHT22;4762;48.128;11.376;2022-12-18T12:45:16;-3272.90;90.90
9448;DHT22;4762;48.128;11.376;2022-12-18T12:47:22;-3273.00;91.20
9448;DHT22;4762;48.128;11.376;2022-12-18T12:49:23;-3273.10;91.80
9448;DHT22;4762;48.128;11.376;2022-12-18T12:51:28;-3273.20;91.10
9448;DHT22;4762;48.128;11.376;2022-12-18T12:53:30;-3272.80;90.20
9448;DHT22;4762;48.128;11.376;2022-12-18T12:55:31;-3272.70;90.50
9448;DHT22;4762;48.128;11.376;2022-12-18T12:57:34;-3272.70;91.40
9448;DHT22;4762;48.128;11.376;2022-12-18T12:59:40;-3272.70;91.90